sensor_id;sensor_type;location;lat;lon;timestamp;pressure;altitude;pressure_sealevel;temperature;humidity
9460;BME280;4768;42.664;23.240;2022-07-15T00:02:19;171452.50;;;16.91;nan
9460;BME280;4768;42.664;23.240;2022-07-15T00:04:45;171407.03;;;16.74;nan
9460;BME280;4768;42.664;23.240;2022-07-15T00:07:12;171377.56;;;16.63;nan
9460;BME280;4768;42.664;23.240;2022-07-15T00:09:39;171358.88;;;16.56;nan
9460;BME280;4768;42.664;23.240;2022-07-15T00:12:25;171353.47;;;16.54;nan
9460;BME280;4768;42.664;23.240;2022-07-15T00:14:52;171443.16;;;16.87;nan
9460;BME280;4768;42.664;23.240;2022-07-15T00:17:19;171489.94;;;17.04;nan
9460;BME280;4768;42.664;23.240;2022-07-15T00:19:45;171469.88;;;16.97;nan
9460;BME280;4768;42.664;23.240;2022-07-15T00:22:12;171382.94;;;16.65;nan
9460;BME280;4768;42.664;23.240;2022-07-15T00:24:39;171346.81;;;16.51;nan
9460;BME280;4768;42.664;23.240;2022-07-15T00:27:06;171345.47;;;16.51;nan
9460;BME280;4768;42.664;23.240;2022-07-15T00:29:34;171357.50;;;16.55;nan
9460;BME280;4768;42.664;23.240;2022-07-15T00:32:00;171358.88;;;16.56;nan
9460;BME280;4768;42.664;23.240;2022-07-15T00:34:27;171326.72;;;16.44;nan
9460;BME280;4768;42.664;23.240;2022-07-15T00:36:54;171324.06;;;16.43;nan
9460;BME280;4768;42.664;23.240;2022-07-15T00:39:21;171334.78;;;16.47;nan
9460;BME280;4768;42.664;23.240;2022-07-15T00:41:47;171361.50;;;16.57;nan
9460;BME280;4768;42.664;23.240;2022-07-15T00:44:14;171372.22;;;16.61;nan
9460;BME280;4768;42.664;23.240;2022-07-15T00:46:42;171358.88;;;16.56;nan
9460;BME280;4768;42.664;23.240;2022-07-15T00:49:10;171370.91;;;16.60;nan
9460;BME280;4768;42.664;23.240;2022-07-15T00:51:42;171349.47;;;16.52;nan
9460;BME280;4768;42.664;23.240;2022-07-15T00:54:11;171337.44;;;16.48;nan
9460;BME280;4768;42.664;23.240;2022-07-15T00:56:41;171317.38;;;16.41;nan
9460;BME280;4768;42.664;23.240;2022-07-15T00:59:09;171278.56;;;16.26;nan
9460;BME280;4768;42.664;23.240;2022-07-15T01:01:37;171254.44;;;16.17;nan
9460;BME280;4768;42.664;23.240;2022-07-15T01:04:06;171310.66;;;16.38;nan
9460;BME280;4768;42.664;23.240;2022-07-15T01:06:33;171241.09;;;16.12;nan
9460;BME280;4768;42.664;23.240;2022-07-15T01:08:59;171198.28;;;15.96;nan
9460;BME280;4768;42.664;23.240;2022-07-15T01:11:28;171176.91;;;15.89;nan
9460;BME280;4768;42.664;23.240;2022-07-15T01:13:56;171152.84;;;15.80;nan
9460;BME280;4768;42.664;23.240;2022-07-15T01:16:23;171138.09;;;15.74;nan
9460;BME280;4768;42.664;23.240;2022-07-15T01:18:50;171132.78;;;15.72;nan
9460;BME280;4768;42.664;23.240;2022-07-15T01:21:18;171132.78;;;15.72;nan
9460;BME280;4768;42.664;23.240;2022-07-15T01:23:45;171084.66;;;15.54;nan
9460;BME280;4768;42.664;23.240;2022-07-15T01:26:12;171080.63;;;15.53;nan
9460;BME280;4768;42.664;23.240;2022-07-15T01:28:40;171068.59;;;15.48;nan
9460;BME280;4768;42.664;23.240;2022-07-15T01:31:07;171047.19;;;15.41;nan
9460;BME280;4768;42.664;23.240;2022-07-15T01:33:34;171043.19;;;15.39;nan
9460;BME280;4768;42.664;23.240;2022-07-15T01:36:02;171065.91;;;15.48;nan
9460;BME280;4768;42.664;23.240;2022-07-15T01:38:30;171056.59;;;15.44;nan
9460;BME280;4768;42.664;23.240;2022-07-15T01:40:57;171027.13;;;15.33;nan
9460;BME280;4768;42.664;23.240;2022-07-15T01:43:24;170980.28;;;15.16;nan
9460;BME280;4768;42.664;23.240;2022-07-15T01:45:51;170984.34;;;15.17;nan
9460;BME280;4768;42.664;23.240;2022-07-15T01:48:17;170984.34;;;15.17;nan
9460;BME280;4768;42.664;23.240;2022-07-15T01:51:16;170962.94;;;15.09;nan
9460;BME280;4768;42.664;23.240;2022-07-15T01:53:45;170968.25;;;15.11;nan
9460;BME280;4768;42.664;23.240;2022-07-15T01:56:11;170950.91;;;15.05;nan
9460;BME280;4768;42.664;23.240;2022-07-15T01:58:38;170905.50;;;14.88;nan
9460;BME280;4768;42.664;23.240;2022-07-15T02:01:05;170890.78;;;14.83;nan
9460;BME280;4768;42.664;23.240;2022-07-15T02:03:33;170874.75;;;14.77;nan
9460;BME280;4768;42.664;23.240;2022-07-15T02:06:00;170878.75;;;14.78;nan
9460;BME280;4768;42.664;23.240;2022-07-15T02:08:26;170886.75;;;14.81;nan
9460;BME280;4768;42.664;23.240;2022-07-15T02:10:54;170930.84;;;14.98;nan
9460;BME280;4768;42.664;23.240;2022-07-15T02:13:21;170945.59;;;15.03;nan
9460;BME280;4768;42.664;23.240;2022-07-15T02:15:48;170958.94;;;15.08;nan
9460;BME280;4768;42.664;23.240;2022-07-15T02:18:15;170936.19;;;14.99;nan
9460;BME280;4768;42.664;23.240;2022-07-15T02:20:41;170914.81;;;14.92;nan
9460;BME280;4768;42.664;23.240;2022-07-15T02:23:08;170916.13;;;14.92;nan
9460;BME280;4768;42.664;23.240;2022-07-15T02:25:35;170917.50;;;14.93;nan
9460;BME280;4768;42.664;23.240;2022-07-15T02:28:05;170896.09;;;14.85;nan
9460;BME280;4768;42.664;23.240;2022-07-15T02:30:33;170876.06;;;14.77;nan
9460;BME280;4768;42.664;23.240;2022-07-15T02:33:01;170865.41;;;14.73;nan
9460;BME280;4768;42.664;23.240;2022-07-15T02:35:28;170779.88;;;14.42;nan
9460;BME280;4768;42.664;23.240;2022-07-15T02:37:55;170769.16;;;14.38;nan
9460;BME280;4768;42.664;23.240;2022-07-15T02:40:23;170779.88;;;14.42;nan
9460;BME280;4768;42.664;23.240;2022-07-15T02:42:51;170781.19;;;14.42;nan
9460;BME280;4768;42.664;23.240;2022-07-15T02:45:21;170783.88;;;14.43;nan
9460;BME280;4768;42.664;23.240;2022-07-15T02:47:49;170797.22;;;14.48;nan
9460;BME280;4768;42.664;23.240;2022-07-15T02:50:17;170802.59;;;14.50;nan
9460;BME280;4768;42.664;23.240;2022-07-15T02:52:44;170793.22;;;14.47;nan
9460;BME280;4768;42.664;23.240;2022-07-15T02:55:12;170794.56;;;14.47;nan
9460;BME280;4768;42.664;23.240;2022-07-15T02:57:40;170805.22;;;14.51;nan
9460;BME280;4768;42.664;23.240;2022-07-15T03:00:09;170794.56;;;14.47;nan
9460;BME280;4768;42.664;23.240;2022-07-15T03:02:38;170797.22;;;14.48;nan
9460;BME280;4768;42.664;23.240;2022-07-15T03:05:06;170806.59;;;14.51;nan
9460;BME280;4768;42.664;23.240;2022-07-15T03:07:33;170801.22;;;14.49;nan
9460;BME280;4768;42.664;23.240;2022-07-15T03:10:00;170754.50;;;14.32;nan
9460;BME280;4768;42.664;23.240;2022-07-15T03:12:26;170785.19;;;14.44;nan
9460;BME280;4768;42.664;23.240;2022-07-15T03:14:54;170778.53;;;14.41;nan
9460;BME280;4768;42.664;23.240;2022-07-15T03:17:21;170751.81;;;14.31;nan
9460;BME280;4768;42.664;23.240;2022-07-15T03:19:49;170770.53;;;14.38;nan
9460;BME280;4768;42.664;23.240;2022-07-15T03:22:16;170806.59;;;14.51;nan
9460;BME280;4768;42.664;23.240;2022-07-15T03:24:43;170763.84;;;14.36;nan
9460;BME280;4768;42.664;23.240;2022-07-15T03:27:10;170798.59;;;14.49;nan
9460;BME280;4768;42.664;23.240;2022-07-15T03:29:36;170876.06;;;14.77;nan
9460;BME280;4768;42.664;23.240;2022-07-15T03:32:04;170869.41;;;14.75;nan
9460;BME280;4768;42.664;23.240;2022-07-15T03:34:32;170881.44;;;14.79;nan
9460;BME280;4768;42.664;23.240;2022-07-15T03:37:00;170922.84;;;14.95;nan
9460;BME280;4768;42.664;23.240;2022-07-15T03:39:27;170914.81;;;14.92;nan
9460;BME280;4768;42.664;23.240;2022-07-15T03:41:54;170929.53;;;14.97;nan
9460;BME280;4768;42.664;23.240;2022-07-15T03:44:21;170985.72;;;15.18;nan
9460;BME280;4768;42.664;23.240;2022-07-15T03:46:47;171019.13;;;15.30;nan
9460;BME280;4768;42.664;23.240;2022-07-15T03:49:15;171033.84;;;15.36;nan
9460;BME280;4768;42.664;23.240;2022-07-15T03:51:42;171084.66;;;15.54;nan
9460;BME280;4768;42.664;23.240;2022-07-15T03:54:10;171098.00;;;15.59;nan
9460;BME280;4768;42.664;23.240;2022-07-15T03:56:37;171112.72;;;15.65;nan
9460;BME280;4768;42.664;23.240;2022-07-15T03:59:04;171136.78;;;15.74;nan
9460;BME280;4768;42.664;23.240;2022-07-15T04:01:32;171143.44;;;15.76;nan
9460;BME280;4768;42.664;23.240;2022-07-15T04:03:59;171209.00;;;16.00;nan
9460;BME280;4768;42.664;23.240;2022-07-15T04:06:25;171199.66;;;15.97;nan
9460;BME280;4768;42.664;23.240;2022-07-15T04:08:52;171210.31;;;16.01;nan
9460;BME280;4768;42.664;23.240;2022-07-15T04:11:20;171349.47;;;16.52;nan
9460;BME280;4768;42.664;23.240;2022-07-15T04:13:47;171534.22;;;17.21;nan
9460;BME280;4768;42.664;23.240;2022-07-15T04:16:14;171530.13;;;17.19;nan
9460;BME280;4768;42.664;23.240;2022-07-15T04:18:41;171472.56;;;16.98;nan
9460;BME280;4768;42.664;23.240;2022-07-15T04:21:08;171523.44;;;17.17;nan
9460;BME280;4768;42.664;23.240;2022-07-15T04:23:35;171558.28;;;17.30;nan
9460;BME280;4768;42.664;23.240;2022-07-15T04:26:02;171538.22;;;17.22;nan
9460;BME280;4768;42.664;23.240;2022-07-15T04:28:30;171540.84;;;17.23;nan
9460;BME280;4768;42.664;23.240;2022-07-15T04:30:57;171530.13;;;17.19;nan
9460;BME280;4768;42.664;23.240;2022-07-15T04:33:23;171548.88;;;17.26;nan
9460;BME280;4768;42.664;23.240;2022-07-15T04:35:50;171579.69;;;17.38;nan
9460;BME280;4768;42.664;23.240;2022-07-15T04:38:17;171615.81;;;17.51;nan
9460;BME280;4768;42.664;23.240;2022-07-15T04:40:44;171646.63;;;17.62;nan
9460;BME280;4768;42.664;23.240;2022-07-15T04:43:10;171684.09;;;17.76;nan
9460;BME280;4768;42.664;23.240;2022-07-15T04:45:39;171714.88;;;17.88;nan
9460;BME280;4768;42.664;23.240;2022-07-15T04:48:06;171710.88;;;17.86;nan
9460;BME280;4768;42.664;23.240;2022-07-15T04:50:53;171776.47;;;18.10;nan
9460;BME280;4768;42.664;23.240;2022-07-15T04:53:19;171709.56;;;17.86;nan
9460;BME280;4768;42.664;23.240;2022-07-15T04:55:47;171669.34;;;17.71;nan
9460;BME280;4768;42.664;23.240;2022-07-15T04:58:14;171722.94;;;17.91;nan
9460;BME280;4768;42.664;23.240;2022-07-15T05:00:44;171713.56;;;17.87;nan
9460;BME280;4768;42.664;23.240;2022-07-15T05:03:11;171807.31;;;18.22;nan
9460;BME280;4768;42.664;23.240;2022-07-15T05:05:38;171949.31;;;18.74;nan
9460;BME280;4768;42.664;23.240;2022-07-15T05:08:05;171968.03;;;18.81;nan
9460;BME280;4768;42.664;23.240;2022-07-15T05:10:32;171969.41;;;18.82;nan
9460;BME280;4768;42.664;23.240;2022-07-15T05:12:58;171997.53;;;18.92;nan
9460;BME280;4768;42.664;23.240;2022-07-15T05:15:25;172053.84;;;19.13;nan
9460;BME280;4768;42.664;23.240;2022-07-15T05:17:53;172072.63;;;19.20;nan
9460;BME280;4768;42.664;23.240;2022-07-15T05:20:20;172173.13;;;19.57;nan
9460;BME280;4768;42.664;23.240;2022-07-15T05:22:47;172064.59;;;19.17;nan
9460;BME280;4768;42.664;23.240;2022-07-15T05:25:14;172068.59;;;19.18;nan
9460;BME280;4768;42.664;23.240;2022-07-15T05:27:41;172052.53;;;19.12;nan
9460;BME280;4768;42.664;23.240;2022-07-15T05:30:09;171996.16;;;18.91;nan
9460;BME280;4768;42.664;23.240;2022-07-15T05:32:37;172108.78;;;19.33;nan
9460;BME280;4768;42.664;23.240;2022-07-15T05:35:06;172126.19;;;19.39;nan
9460;BME280;4768;42.664;23.240;2022-07-15T05:37:36;172213.31;;;19.72;nan
9460;BME280;4768;42.664;23.240;2022-07-15T05:40:05;172356.81;;;20.25;nan
9460;BME280;4768;42.664;23.240;2022-07-15T05:42:32;172427.88;;;20.51;nan
9460;BME280;4768;42.664;23.240;2022-07-15T05:44:59;172395.69;;;20.39;nan
9460;BME280;4768;42.664;23.240;2022-07-15T05:47:26;172430.53;;;20.52;nan
9460;BME280;4768;42.664;23.240;2022-07-15T05:49:53;172540.56;;;20.92;nan
9460;BME280;4768;42.664;23.240;2022-07-15T05:52:21;172621.03;;;21.22;nan
9460;BME280;4768;42.664;23.240;2022-07-15T05:54:48;172594.19;;;21.12;nan
9460;BME280;4768;42.664;23.240;2022-07-15T05:57:15;172523.09;;;20.86;nan
9460;BME280;4768;42.664;23.240;2022-07-15T05:59:42;172398.34;;;20.40;nan
9460;BME280;4768;42.664;23.240;2022-07-15T06:02:09;172532.53;;;20.89;nan
9460;BME280;4768;42.664;23.240;2022-07-15T06:04:36;172696.22;;;21.50;nan
9460;BME280;4768;42.664;23.240;2022-07-15T06:07:03;172663.97;;;21.38;nan
9460;BME280;4768;42.664;23.240;2022-07-15T06:09:32;172673.34;;;21.41;nan
9460;BME280;4768;42.664;23.240;2022-07-15T06:11:58;172603.63;;;21.16;nan
9460;BME280;4768;42.664;23.240;2022-07-15T06:14:25;172300.50;;;20.04;nan
9460;BME280;4768;42.664;23.240;2022-07-15T06:16:52;172352.78;;;20.23;nan
9460;BME280;4768;42.664;23.240;2022-07-15T06:19:19;172409.09;;;20.44;nan
9460;BME280;4768;42.664;23.240;2022-07-15T06:21:45;172519.06;;;20.85;nan
9460;BME280;4768;42.664;23.240;2022-07-15T06:24:12;172422.47;;;20.49;nan
9460;BME280;4768;42.664;23.240;2022-07-15T06:26:40;172453.34;;;20.60;nan
9460;BME280;4768;42.664;23.240;2022-07-15T06:29:07;172493.63;;;20.75;nan
9460;BME280;4768;42.664;23.240;2022-07-15T06:31:34;172443.97;;;20.57;nan
9460;BME280;4768;42.664;23.240;2022-07-15T06:34:01;172508.38;;;20.81;nan
9460;BME280;4768;42.664;23.240;2022-07-15T06:36:27;172500.34;;;20.78;nan
9460;BME280;4768;42.664;23.240;2022-07-15T06:38:54;172571.44;;;21.04;nan
9460;BME280;4768;42.664;23.240;2022-07-15T06:41:21;172535.22;;;20.90;nan
9460;BME280;4768;42.664;23.240;2022-07-15T06:43:49;172564.72;;;21.01;nan
9460;BME280;4768;42.664;23.240;2022-07-15T06:46:16;172709.63;;;21.55;nan
9460;BME280;4768;42.664;23.240;2022-07-15T06:48:43;172855.91;;;22.09;nan
9460;BME280;4768;42.664;23.240;2022-07-15T06:51:09;172857.22;;;22.09;nan
9460;BME280;4768;42.664;23.240;2022-07-15T06:53:37;172854.53;;;22.08;nan
9460;BME280;4768;42.664;23.240;2022-07-15T06:56:04;173010.31;;;22.66;nan
9460;BME280;4768;42.664;23.240;2022-07-15T06:58:31;173000.91;;;22.62;nan
9460;BME280;4768;42.664;23.240;2022-07-15T07:00:59;172940.50;;;22.40;nan
9460;BME280;4768;42.664;23.240;2022-07-15T07:03:26;172988.84;;;22.58;nan
9460;BME280;4768;42.664;23.240;2022-07-15T07:05:53;173054.66;;;22.82;nan
9460;BME280;4768;42.664;23.240;2022-07-15T07:08:19;173046.53;;;22.79;nan
9460;BME280;4768;42.664;23.240;2022-07-15T07:10:46;173081.47;;;22.92;nan
9460;BME280;4768;42.664;23.240;2022-07-15T07:13:13;173227.91;;;23.46;nan
9460;BME280;4768;42.664;23.240;2022-07-15T07:15:40;172998.22;;;22.61;nan
9460;BME280;4768;42.664;23.240;2022-07-15T07:18:08;173086.91;;;22.94;nan
9460;BME280;4768;42.664;23.240;2022-07-15T07:20:36;172994.19;;;22.60;nan
9460;BME280;4768;42.664;23.240;2022-07-15T07:23:03;173178.19;;;23.28;nan
9460;BME280;4768;42.664;23.240;2022-07-15T07:25:29;173093.59;;;22.96;nan
9460;BME280;4768;42.664;23.240;2022-07-15T07:27:56;173131.22;;;23.10;nan
9460;BME280;4768;42.664;23.240;2022-07-15T07:30:26;173108.38;;;23.02;nan
9460;BME280;4768;42.664;23.240;2022-07-15T07:32:53;173058.69;;;22.83;nan
9460;BME280;4768;42.664;23.240;2022-07-15T07:35:21;173233.25;;;23.48;nan
9460;BME280;4768;42.664;23.240;2022-07-15T07:37:49;173360.94;;;23.95;nan
9460;BME280;4768;42.664;23.240;2022-07-15T07:40:16;173406.66;;;24.12;nan
9460;BME280;4768;42.664;23.240;2022-07-15T07:42:43;173172.84;;;23.26;nan
9460;BME280;4768;42.664;23.240;2022-07-15T07:45:10;173319.31;;;23.80;nan
9460;BME280;4768;42.664;23.240;2022-07-15T07:47:37;173484.59;;;24.40;nan
9460;BME280;4768;42.664;23.240;2022-07-15T07:50:07;173215.81;;;23.41;nan
9460;BME280;4768;42.664;23.240;2022-07-15T07:52:36;173433.47;;;24.22;nan
9460;BME280;4768;42.664;23.240;2022-07-15T07:55:03;173332.72;;;23.84;nan
9460;BME280;4768;42.664;23.240;2022-07-15T07:57:30;173330.03;;;23.83;nan
9460;BME280;4768;42.664;23.240;2022-07-15T07:59:58;173542.38;;;24.62;nan
9460;BME280;4768;42.664;23.240;2022-07-15T08:02:25;173629.75;;;24.94;nan
9460;BME280;4768;42.664;23.240;2022-07-15T08:04:52;173557.16;;;24.67;nan
9460;BME280;4768;42.664;23.240;2022-07-15T08:07:19;173597.50;;;24.82;nan
9460;BME280;4768;42.664;23.240;2022-07-15T08:09:47;173725.25;;;25.29;nan
9460;BME280;4768;42.664;23.240;2022-07-15T08:12:14;173491.34;;;24.43;nan
9460;BME280;4768;42.664;23.240;2022-07-15T08:14:41;173573.28;;;24.73;nan
9460;BME280;4768;42.664;23.240;2022-07-15T08:17:08;173492.66;;;24.43;nan
9460;BME280;4768;42.664;23.240;2022-07-15T08:19:34;173682.22;;;25.13;nan
9460;BME280;4768;42.664;23.240;2022-07-15T08:22:01;173635.16;;;24.96;nan
9460;BME280;4768;42.664;23.240;2022-07-15T08:24:28;173537.00;;;24.60;nan
9460;BME280;4768;42.664;23.240;2022-07-15T08:26:56;173537.00;;;24.60;nan
9460;BME280;4768;42.664;23.240;2022-07-15T08:29:23;173562.53;;;24.69;nan
9460;BME280;4768;42.664;23.240;2022-07-15T08:31:49;173547.78;;;24.64;nan
9460;BME280;4768;42.664;23.240;2022-07-15T08:34:16;173589.41;;;24.79;nan
9460;BME280;4768;42.664;23.240;2022-07-15T08:36:43;173606.94;;;24.85;nan
9460;BME280;4768;42.664;23.240;2022-07-15T08:39:10;173645.91;;;25.00;nan
9460;BME280;4768;42.664;23.240;2022-07-15T08:41:38;173692.97;;;25.17;nan
9460;BME280;4768;42.664;23.240;2022-07-15T08:44:07;173776.34;;;25.48;nan
9460;BME280;4768;42.664;23.240;2022-07-15T08:46:35;173701.03;;;25.20;nan
9460;BME280;4768;42.664;23.240;2022-07-15T08:49:05;173694.31;;;25.18;nan
9460;BME280;4768;42.664;23.240;2022-07-15T08:51:35;173655.38;;;25.03;nan
9460;BME280;4768;42.664;23.240;2022-07-15T08:54:04;173771.00;;;25.46;nan
9460;BME280;4768;42.664;23.240;2022-07-15T08:56:32;173710.44;;;25.24;nan
9460;BME280;4768;42.664;23.240;2022-07-15T08:59:01;173717.19;;;25.26;nan
9460;BME280;4768;42.664;23.240;2022-07-15T09:01:30;173702.38;;;25.21;nan
9460;BME280;4768;42.664;23.240;2022-07-15T09:03:58;173828.81;;;25.67;nan
9460;BME280;4768;42.664;23.240;2022-07-15T09:06:33;173951.22;;;26.12;nan
9460;BME280;4768;42.664;23.240;2022-07-15T09:09:22;173941.78;;;26.09;nan
9460;BME280;4768;42.664;23.240;2022-07-15T09:11:53;173892.03;;;25.90;nan
9460;BME280;4768;42.664;23.240;2022-07-15T09:14:21;173997.00;;;26.29;nan
9460;BME280;4768;42.664;23.240;2022-07-15T09:16:49;173968.69;;;26.19;nan
9460;BME280;4768;42.664;23.240;2022-07-15T09:19:16;174189.44;;;27.00;nan
9460;BME280;4768;42.664;23.240;2022-07-15T09:21:43;174115.41;;;26.73;nan
9460;BME280;4768;42.664;23.240;2022-07-15T09:24:17;173974.06;;;26.21;nan
9460;BME280;4768;42.664;23.240;2022-07-15T09:26:44;173983.50;;;26.24;nan
9460;BME280;4768;42.664;23.240;2022-07-15T09:29:14;173928.34;;;26.04;nan
9460;BME280;4768;42.664;23.240;2022-07-15T09:31:57;173970.03;;;26.19;nan
9460;BME280;4768;42.664;23.240;2022-07-15T09:35:00;173883.97;;;25.87;nan
9460;BME280;4768;42.664;23.240;2022-07-15T09:37:28;173980.81;;;26.23;nan
9460;BME280;4768;42.664;23.240;2022-07-15T09:39:55;173943.16;;;26.09;nan
9460;BME280;4768;42.664;23.240;2022-07-15T09:42:22;173921.63;;;26.01;nan
9460;BME280;4768;42.664;23.240;2022-07-15T09:44:49;174042.72;;;26.46;nan
9460;BME280;4768;42.664;23.240;2022-07-15T09:47:19;174042.72;;;26.46;nan
9460;BME280;4768;42.664;23.240;2022-07-15T09:49:48;173935.09;;;26.06;nan
9460;BME280;4768;42.664;23.240;2022-07-15T09:52:15;174001.03;;;26.30;nan
9460;BME280;4768;42.664;23.240;2022-07-15T09:54:44;174083.09;;;26.61;nan
9460;BME280;4768;42.664;23.240;2022-07-15T09:57:12;174075.00;;;26.58;nan
9460;BME280;4768;42.664;23.240;2022-07-15T09:59:40;173971.41;;;26.20;nan
9460;BME280;4768;42.664;23.240;2022-07-15T10:02:07;173978.09;;;26.22;nan
9460;BME280;4768;42.664;23.240;2022-07-15T10:04:36;173896.06;;;25.92;nan
9460;BME280;4768;42.664;23.240;2022-07-15T10:07:04;173862.44;;;25.79;nan
9460;BME280;4768;42.664;23.240;2022-07-15T10:09:33;173991.56;;;26.27;nan
9460;BME280;4768;42.664;23.240;2022-07-15T10:12:02;173961.97;;;26.16;nan
9460;BME280;4768;42.664;23.240;2022-07-15T10:14:55;174070.94;;;26.56;nan
9460;BME280;4768;42.664;23.240;2022-07-15T10:17:52;174200.22;;;27.04;nan
9460;BME280;4768;42.664;23.240;2022-07-15T10:23:45;174198.81;;;27.03;nan
9460;BME280;4768;42.664;23.240;2022-07-15T10:26:23;174095.22;;;26.65;nan
9460;BME280;4768;42.664;23.240;2022-07-15T10:28:55;174208.28;;;27.07;nan
9460;BME280;4768;42.664;23.240;2022-07-15T10:31:26;174123.47;;;26.76;nan
9460;BME280;4768;42.664;23.240;2022-07-15T10:34:15;174027.94;;;26.40;nan
9460;BME280;4768;42.664;23.240;2022-07-15T10:36:57;174136.91;;;26.80;nan
9460;BME280;4768;42.664;23.240;2022-07-15T10:39:27;174158.41;;;26.88;nan
9460;BME280;4768;42.664;23.240;2022-07-15T10:41:56;174177.31;;;26.95;nan
9460;BME280;4768;42.664;23.240;2022-07-15T10:44:25;174294.38;;;27.38;nan
9460;BME280;4768;42.664;23.240;2022-07-15T10:47:17;174359.03;;;27.62;nan
9460;BME280;4768;42.664;23.240;2022-07-15T10:49:46;174398.06;;;27.77;nan
9460;BME280;4768;42.664;23.240;2022-07-15T10:52:17;174430.38;;;27.88;nan
9460;BME280;4768;42.664;23.240;2022-07-15T10:54:47;174243.22;;;27.20;nan
9460;BME280;4768;42.664;23.240;2022-07-15T10:57:15;174325.34;;;27.50;nan
9460;BME280;4768;42.664;23.240;2022-07-15T10:59:49;174403.44;;;27.78;nan
9460;BME280;4768;42.664;23.240;2022-07-15T11:02:19;174419.59;;;27.84;nan
9460;BME280;4768;42.664;23.240;2022-07-15T11:04:46;174442.50;;;27.93;nan
9460;BME280;4768;42.664;23.240;2022-07-15T11:07:30;174464.06;;;28.01;nan
9460;BME280;4768;42.664;23.240;2022-07-15T11:10:21;174528.72;;;28.25;nan
9460;BME280;4768;42.664;23.240;2022-07-15T11:12:59;174503.13;;;28.15;nan
9460;BME280;4768;42.664;23.240;2022-07-15T11:15:28;174434.41;;;27.90;nan
9460;BME280;4768;42.664;23.240;2022-07-15T11:17:56;174356.38;;;27.61;nan
9460;BME280;4768;42.664;23.240;2022-07-15T11:20:28;174367.09;;;27.65;nan
9460;BME280;4768;42.664;23.240;2022-07-15T11:22:58;174357.69;;;27.62;nan
9460;BME280;4768;42.664;23.240;2022-07-15T11:25:29;174418.25;;;27.84;nan
9460;BME280;4768;42.664;23.240;2022-07-15T11:27:58;174412.91;;;27.82;nan
9460;BME280;4768;42.664;23.240;2022-07-15T11:30:27;174492.38;;;28.11;nan
9460;BME280;4768;42.664;23.240;2022-07-15T11:32:55;174305.16;;;27.42;nan
9460;BME280;4768;42.664;23.240;2022-07-15T11:35:23;174376.56;;;27.69;nan
9460;BME280;4768;42.664;23.240;2022-07-15T11:37:57;174559.66;;;28.36;nan
9460;BME280;4768;42.664;23.240;2022-07-15T11:40:24;174472.13;;;28.04;nan
9460;BME280;4768;42.664;23.240;2022-07-15T11:43:14;174446.53;;;27.94;nan
9460;BME280;4768;42.664;23.240;2022-07-15T11:45:56;174520.66;;;28.22;nan
9460;BME280;4768;42.664;23.240;2022-07-15T11:48:23;174621.63;;;28.59;nan
9460;BME280;4768;42.664;23.240;2022-07-15T11:50:51;174714.59;;;28.93;nan
9460;BME280;4768;42.664;23.240;2022-07-15T11:53:18;174734.78;;;29.00;nan
9460;BME280;4768;42.664;23.240;2022-07-15T11:55:50;174850.69;;;29.43;nan
9460;BME280;4768;42.664;23.240;2022-07-15T11:58:26;174784.66;;;29.19;nan
9460;BME280;4768;42.664;23.240;2022-07-15T12:00:53;174730.75;;;28.99;nan
9460;BME280;4768;42.664;23.240;2022-07-15T12:03:20;174629.72;;;28.62;nan
9460;BME280;4768;42.664;23.240;2022-07-15T12:06:04;174563.69;;;28.37;nan
9460;BME280;4768;42.664;23.240;2022-07-15T12:08:36;174621.63;;;28.59;nan
9460;BME280;4768;42.664;23.240;2022-07-15T12:11:09;174574.50;;;28.41;nan
9460;BME280;4768;42.664;23.240;2022-07-15T12:13:42;174557.00;;;28.35;nan
9460;BME280;4768;42.664;23.240;2022-07-15T12:16:10;174547.53;;;28.31;nan
9460;BME280;4768;42.664;23.240;2022-07-15T12:18:37;174561.03;;;28.36;nan
9460;BME280;4768;42.664;23.240;2022-07-15T12:21:03;174442.50;;;27.93;nan
9460;BME280;4768;42.664;23.240;2022-07-15T12:23:30;174574.50;;;28.41;nan
9460;BME280;4768;42.664;23.240;2022-07-15T12:26:02;174635.06;;;28.64;nan
9460;BME280;4768;42.664;23.240;2022-07-15T12:28:29;174624.34;;;28.60;nan
9460;BME280;4768;42.664;23.240;2022-07-15T12:30:57;174722.69;;;28.96;nan
9460;BME280;4768;42.664;23.240;2022-07-15T12:33:25;174710.56;;;28.91;nan
9460;BME280;4768;42.664;23.240;2022-07-15T12:36:13;174674.19;;;28.78;nan
9460;BME280;4768;42.664;23.240;2022-07-15T12:38:40;174680.94;;;28.80;nan
9460;BME280;4768;42.664;23.240;2022-07-15T12:41:20;174671.47;;;28.77;nan
9460;BME280;4768;42.664;23.240;2022-07-15T12:43:49;174654.00;;;28.71;nan
9460;BME280;4768;42.664;23.240;2022-07-15T12:46:18;174781.94;;;29.18;nan
9460;BME280;4768;42.664;23.240;2022-07-15T12:48:47;174808.97;;;29.27;nan
9460;BME280;4768;42.664;23.240;2022-07-15T12:51:15;174725.38;;;28.97;nan
9460;BME280;4768;42.664;23.240;2022-07-15T12:53:42;174659.38;;;28.73;nan
9460;BME280;4768;42.664;23.240;2022-07-15T12:56:09;174597.38;;;28.50;nan
9460;BME280;4768;42.664;23.240;2022-07-15T12:58:36;174674.19;;;28.78;nan
9460;BME280;4768;42.664;23.240;2022-07-15T13:01:05;174639.13;;;28.65;nan
9460;BME280;4768;42.664;23.240;2022-07-15T13:03:34;174649.97;;;28.69;nan
9460;BME280;4768;42.664;23.240;2022-07-15T13:06:02;174771.16;;;29.14;nan
9460;BME280;4768;42.664;23.240;2022-07-15T13:08:30;174837.25;;;29.38;nan
9460;BME280;4768;42.664;23.240;2022-07-15T13:10:59;174969.34;;;29.86;nan
9460;BME280;4768;42.664;23.240;2022-07-15T13:13:28;174841.28;;;29.39;nan
9460;BME280;4768;42.664;23.240;2022-07-15T13:15:55;174923.44;;;29.70;nan
9460;BME280;4768;42.664;23.240;2022-07-15T13:18:24;174938.28;;;29.75;nan
9460;BME280;4768;42.664;23.240;2022-07-15T13:20:53;174856.06;;;29.45;nan
9460;BME280;4768;42.664;23.240;2022-07-15T13:23:21;174826.47;;;29.34;nan
9460;BME280;4768;42.664;23.240;2022-07-15T13:25:48;174819.69;;;29.31;nan
9460;BME280;4768;42.664;23.240;2022-07-15T13:28:16;174835.88;;;29.37;nan
9460;BME280;4768;42.664;23.240;2022-07-15T13:30:43;174865.53;;;29.48;nan
9460;BME280;4768;42.664;23.240;2022-07-15T13:33:10;174733.47;;;29.00;nan
9460;BME280;4768;42.664;23.240;2022-07-15T13:35:38;174748.25;;;29.05;nan